Список аэропортов
Фактическая погода:

21 августа, 07:00
Температура: +22°C (+22.0*)
Ветер: сев.-восточный 5 м/с
Давление: *757 мм
не опр.
Время (МСК)Темп. СВетерВлажностьДавлениеОблачностьОсадки
03:00+21СВ, 3 м/с60%1010 гПаясно
04:00+21СВ, 3 м/с58%1010 гПаясно
05:00+21СВ, 4 м/с54%1010 гПаясно
06:00+21СВ, 5 м/с57%1010 гПаясно
07:00+22СВ, 5 м/с62%1009 гПаясно
08:00+23В, 6 м/с62%1009 гПаясно
09:00+25В, 6 м/с58%1008 гПаясно
10:00+27В, 6 м/с54%1008 гПаясно
11:00+30В, 5 м/с49%1008 гПаясно
12:00+32В, 4 м/с44%1008 гПаясно
13:00+33ЮВ, 3 м/с42%1007 гПас прояснениями
14:00+31ЮВ, 2 м/с52%1007 гПамалооблачносл. дождь
15:00+30СВ, 1 м/с62%1006 гПас прояснениямидождь
16:00+30З, 1 м/с65%1006 гПаясно
17:00+30З, 2 м/с59%1005 гПамалооблачно
18:00+30СЗ, 2 м/с57%1005 гПамалооблачно
19:00+28СЗ, 2 м/с64%1005 гПаясно
20:00+27СЗ, 1 м/с75%1005 гПаясно
21:00+26СВ, 1 м/с78%1005 гПаясно
22:00+26СВ, 3 м/с66%1004 гПаясно
23:00+26СВ, 4 м/с55%1003 гПаясно
22 августа
00:00+25СВ, 4 м/с53%1003 гПаясно
01:00+24СВ, 3 м/с55%1003 гПаясно
02:00+23СВ, 3 м/с57%1003 гПаясно
03:00+22СВ, 3 м/с58%1003 гПаясно
04:00+22СВ, 3 м/с58%1003 гПаясно
05:00+22СВ, 4 м/с58%1003 гПас прояснениями
06:00+22СВ, 4 м/с60%1004 гПаоблачно
07:00+22СВ, 4 м/с57%1004 гПамалооблачно
08:00+24В, 4 м/с52%1004 гПамалооблачно
09:00+27В, 2 м/с50%1004 гПаясно
10:00+28С, 1 м/с48%1004 гПас прояснениями
11:00+30СЗ, 2 м/с46%1004 гПас прояснениями
12:00+31С, 2 м/с44%1004 гПамалооблачно
13:00+32СЗ, 1 м/с42%1004 гПамалооблачно
14:00+33СЗ, 3 м/с41%1003 гПамалооблачно
15:00+32СЗ, 4 м/с42%1003 гПамалооблачно
16:00+32З, 4 м/с44%1003 гПаоблачно
17:00+30З, 4 м/с56%1004 гПас прояснениями
18:00+28З, 4 м/с63%1004 гПаоблачно
19:00+27З, 3 м/с65%1004 гПаоблачно
20:00+26ЮЗ, 2 м/с73%1004 гПамалооблачно
21:00+25ЮЗ, 2 м/с81%1005 гПаясно
22:00+24ЮЗ, 1 м/с89%1005 гПаясно
23:00+24ЮЗ, 2 м/с93%1004 гПаясно
23 августа
00:00+23ЮЗ, 2 м/с95%1004 гПаясно
01:00+23ЮЗ, 2 м/с96%1005 гПамалооблачно
02:00+23ЮЗ, 3 м/с96%1005 гПаоблачно
03:00+23Ю, 3 м/с96%1005 гПаоблачно